sensor_id;sensor_type;location;lat;lon;timestamp;pressure;altitude;pressure_sealevel;temperature
79714;BMP280;69206;51.420;5.400;2023-05-14T00:02:21;101913.88;;;15.47
79714;BMP280;69206;51.420;5.400;2023-05-14T00:04:46;101896.63;;;15.33
79714;BMP280;69206;51.420;5.400;2023-05-14T00:07:12;101898.47;;;15.33
79714;BMP280;69206;51.420;5.400;2023-05-14T00:09:37;101889.97;;;15.29
79714;BMP280;69206;51.420;5.400;2023-05-14T00:12:03;101892.75;;;15.28
79714;BMP280;69206;51.420;5.400;2023-05-14T00:14:29;101886.53;;;15.19
79714;BMP280;69206;51.420;5.400;2023-05-14T00:16:54;101894.47;;;15.19
79714;BMP280;69206;51.420;5.400;2023-05-14T00:19:20;101894.91;;;15.15
79714;BMP280;69206;51.420;5.400;2023-05-14T00:21:46;101891.59;;;15.13
79714;BMP280;69206;51.420;5.400;2023-05-14T00:24:11;101882.78;;;15.12
79714;BMP280;69206;51.420;5.400;2023-05-14T00:26:37;101888.38;;;15.19
79714;BMP280;69206;51.420;5.400;2023-05-14T00:29:02;101883.22;;;15.17
79714;BMP280;69206;51.420;5.400;2023-05-14T00:31:27;101887.28;;;15.12
79714;BMP280;69206;51.420;5.400;2023-05-14T00:33:53;101880.59;;;15.08
79714;BMP280;69206;51.420;5.400;2023-05-14T00:36:18;101877.00;;;15.09
79714;BMP280;69206;51.420;5.400;2023-05-14T00:38:44;101880.19;;;15.03
79714;BMP280;69206;51.420;5.400;2023-05-14T00:41:09;101877.56;;;15.03
79714;BMP280;69206;51.420;5.400;2023-05-14T00:43:34;101883.09;;;15.00
79714;BMP280;69206;51.420;5.400;2023-05-14T00:46:00;101869.50;;;14.95
79714;BMP280;69206;51.420;5.400;2023-05-14T00:48:25;101874.78;;;14.95
79714;BMP280;69206;51.420;5.400;2023-05-14T00:50:51;101866.34;;;14.82
79714;BMP280;69206;51.420;5.400;2023-05-14T00:53:18;101867.19;;;14.83
79714;BMP280;69206;51.420;5.400;2023-05-14T00:55:44;101867.97;;;14.83
79714;BMP280;69206;51.420;5.400;2023-05-14T00:58:12;101869.25;;;14.79
79714;BMP280;69206;51.420;5.400;2023-05-14T01:00:39;101864.81;;;14.70
79714;BMP280;69206;51.420;5.400;2023-05-14T01:03:05;101830.78;;;14.39
79714;BMP280;69206;51.420;5.400;2023-05-14T01:11:24;101867.47;;;14.51
79714;BMP280;69206;51.420;5.400;2023-05-14T01:16:36;101857.22;;;14.48
79714;BMP280;69206;51.420;5.400;2023-05-14T01:19:04;101851.06;;;14.38
79714;BMP280;69206;51.420;5.400;2023-05-14T01:21:38;101861.78;;;14.37
79714;BMP280;69206;51.420;5.400;2023-05-14T01:24:06;101843.97;;;14.20
79714;BMP280;69206;51.420;5.400;2023-05-14T01:26:32;101855.13;;;14.23
79714;BMP280;69206;51.420;5.400;2023-05-14T01:29:25;101861.53;;;14.30
79714;BMP280;69206;51.420;5.400;2023-05-14T01:31:52;101831.31;;;14.04
79714;BMP280;69206;51.420;5.400;2023-05-14T01:34:21;101861.66;;;14.19
79714;BMP280;69206;51.420;5.400;2023-05-14T01:36:50;101858.84;;;14.11
79714;BMP280;69206;51.420;5.400;2023-05-14T01:39:16;101813.22;;;13.90
79714;BMP280;69206;51.420;5.400;2023-05-14T01:41:43;101841.47;;;13.99
79714;BMP280;69206;51.420;5.400;2023-05-14T01:44:10;101830.06;;;13.89
79714;BMP280;69206;51.420;5.400;2023-05-14T01:46:36;101851.75;;;14.02
79714;BMP280;69206;51.420;5.400;2023-05-14T01:49:01;101851.31;;;13.97
79714;BMP280;69206;51.420;5.400;2023-05-14T01:51:27;101842.00;;;13.93
79714;BMP280;69206;51.420;5.400;2023-05-14T01:53:52;101824.78;;;13.80
79714;BMP280;69206;51.420;5.400;2023-05-14T01:56:22;101856.03;;;13.84
79714;BMP280;69206;51.420;5.400;2023-05-14T01:58:48;101860.88;;;13.79
79714;BMP280;69206;51.420;5.400;2023-05-14T02:01:14;101852.81;;;13.71
79714;BMP280;69206;51.420;5.400;2023-05-14T02:03:39;101849.28;;;13.61
79714;BMP280;69206;51.420;5.400;2023-05-14T02:06:05;101825.22;;;13.45
79714;BMP280;69206;51.420;5.400;2023-05-14T02:08:30;101856.63;;;13.58
79714;BMP280;69206;51.420;5.400;2023-05-14T02:10:56;101819.06;;;13.35
79714;BMP280;69206;51.420;5.400;2023-05-14T02:13:21;101849.41;;;13.50
79714;BMP280;69206;51.420;5.400;2023-05-14T02:15:47;101851.84;;;13.42
79714;BMP280;69206;51.420;5.400;2023-05-14T02:18:13;101853.28;;;13.46
79714;BMP280;69206;51.420;5.400;2023-05-14T02:20:38;101845.06;;;13.40
79714;BMP280;69206;51.420;5.400;2023-05-14T02:23:04;101842.94;;;13.34
79714;BMP280;69206;51.420;5.400;2023-05-14T02:25:29;101850.03;;;13.33
79714;BMP280;69206;51.420;5.400;2023-05-14T02:27:54;101855.03;;;13.36
79714;BMP280;69206;51.420;5.400;2023-05-14T02:30:20;101842.13;;;13.33
79714;BMP280;69206;51.420;5.400;2023-05-14T02:32:46;101847.13;;;13.36
79714;BMP280;69206;51.420;5.400;2023-05-14T02:35:11;101837.09;;;13.30
79714;BMP280;69206;51.420;5.400;2023-05-14T02:37:36;101839.59;;;13.32
79714;BMP280;69206;51.420;5.400;2023-05-14T02:40:02;101843.00;;;13.43
79714;BMP280;69206;51.420;5.400;2023-05-14T02:42:28;101837.28;;;13.38
79714;BMP280;69206;51.420;5.400;2023-05-14T02:44:54;101827.44;;;13.40
79714;BMP280;69206;51.420;5.400;2023-05-14T02:47:19;101843.00;;;13.43
79714;BMP280;69206;51.420;5.400;2023-05-14T02:49:45;101785.97;;;13.12
79714;BMP280;69206;51.420;5.400;2023-05-14T02:52:10;101829.09;;;13.41
79714;BMP280;69206;51.420;5.400;2023-05-14T02:54:35;101833.81;;;13.38
79714;BMP280;69206;51.420;5.400;2023-05-14T02:57:01;101833.81;;;13.38
79714;BMP280;69206;51.420;5.400;2023-05-14T02:59:26;101836.31;;;13.39
79714;BMP280;69206;51.420;5.400;2023-05-14T03:01:52;101830.72;;;13.33
79714;BMP280;69206;51.420;5.400;2023-05-14T03:04:17;101834.06;;;13.35
79714;BMP280;69206;51.420;5.400;2023-05-14T03:06:43;101832.25;;;13.35
79714;BMP280;69206;51.420;5.400;2023-05-14T03:09:08;101836.31;;;13.39
79714;BMP280;69206;51.420;5.400;2023-05-14T03:11:34;101809.00;;;13.20
79714;BMP280;69206;51.420;5.400;2023-05-14T03:13:59;101823.50;;;13.35
79714;BMP280;69206;51.420;5.400;2023-05-14T03:16:25;101831.09;;;13.28
79714;BMP280;69206;51.420;5.400;2023-05-14T03:18:51;101829.00;;;13.22
79714;BMP280;69206;51.420;5.400;2023-05-14T03:21:16;101824.00;;;13.19
79714;BMP280;69206;51.420;5.400;2023-05-14T03:23:42;101821.78;;;13.15
79714;BMP280;69206;51.420;5.400;2023-05-14T03:26:07;101788.75;;;12.90
79714;BMP280;69206;51.420;5.400;2023-05-14T03:28:32;101825.28;;;13.04
79714;BMP280;69206;51.420;5.400;2023-05-14T03:30:58;101784.59;;;12.88
79714;BMP280;69206;51.420;5.400;2023-05-14T03:33:23;101811.69;;;12.99
79714;BMP280;69206;51.420;5.400;2023-05-14T03:35:49;101816.69;;;13.02
79714;BMP280;69206;51.420;5.400;2023-05-14T03:38:14;101814.84;;;12.93
79714;BMP280;69206;51.420;5.400;2023-05-14T03:40:39;101812.44;;;12.90
79714;BMP280;69206;51.420;5.400;2023-05-14T03:43:05;101806.75;;;12.85
79714;BMP280;69206;51.420;5.400;2023-05-14T03:45:31;101804.34;;;12.73
79714;BMP280;69206;51.420;5.400;2023-05-14T03:47:57;101814.47;;;12.77
79714;BMP280;69206;51.420;5.400;2023-05-14T03:50:22;101800.41;;;12.67
79714;BMP280;69206;51.420;5.400;2023-05-14T03:52:50;101812.84;;;12.65
79714;BMP280;69206;51.420;5.400;2023-05-14T03:55:18;101813.13;;;12.62
79714;BMP280;69206;51.420;5.400;2023-05-14T03:57:43;101817.69;;;12.60
79714;BMP280;69206;51.420;5.400;2023-05-14T04:00:09;101810.84;;;12.58
79714;BMP280;69206;51.420;5.400;2023-05-14T04:02:34;101806.13;;;12.52
79714;BMP280;69206;51.420;5.400;2023-05-14T04:05:00;101819.25;;;12.42
79714;BMP280;69206;51.420;5.400;2023-05-14T04:07:25;101810.84;;;12.37
79714;BMP280;69206;51.420;5.400;2023-05-14T04:09:51;101818.88;;;12.36
79714;BMP280;69206;51.420;5.400;2023-05-14T04:12:16;101818.25;;;12.43
79714;BMP280;69206;51.420;5.400;2023-05-14T04:14:41;101824.84;;;12.38
79714;BMP280;69206;51.420;5.400;2023-05-14T04:17:07;101806.06;;;12.42
79714;BMP280;69206;51.420;5.400;2023-05-14T04:19:32;101820.16;;;12.41
79714;BMP280;69206;51.420;5.400;2023-05-14T04:21:57;101806.34;;;12.28
79714;BMP280;69206;51.420;5.400;2023-05-14T04:24:23;101809.13;;;12.27
79714;BMP280;69206;51.420;5.400;2023-05-14T04:26:48;101758.38;;;12.04
79714;BMP280;69206;51.420;5.400;2023-05-14T04:29:14;101814.09;;;12.30
79714;BMP280;69206;51.420;5.400;2023-05-14T04:31:39;101822.72;;;12.32
79714;BMP280;69206;51.420;5.400;2023-05-14T04:34:06;101762.72;;;11.94
79714;BMP280;69206;51.420;5.400;2023-05-14T04:36:31;101821.94;;;12.20
79714;BMP280;69206;51.420;5.400;2023-05-14T04:38:56;101809.81;;;12.29
79714;BMP280;69206;51.420;5.400;2023-05-14T04:41:22;101783.72;;;12.05
79714;BMP280;69206;51.420;5.400;2023-05-14T04:43:49;101824.75;;;12.28
79714;BMP280;69206;51.420;5.400;2023-05-14T04:46:14;101824.84;;;12.38
79714;BMP280;69206;51.420;5.400;2023-05-14T04:48:40;101812.47;;;12.29
79714;BMP280;69206;51.420;5.400;2023-05-14T04:51:05;101819.84;;;12.35
79714;BMP280;69206;51.420;5.400;2023-05-14T04:53:31;101814.09;;;12.41
79714;BMP280;69206;51.420;5.400;2023-05-14T04:55:56;101818.50;;;12.40
79714;BMP280;69206;51.420;5.400;2023-05-14T04:58:22;101811.03;;;12.45
79714;BMP280;69206;51.420;5.400;2023-05-14T05:00:48;101797.28;;;12.21
79714;BMP280;69206;51.420;5.400;2023-05-14T05:03:14;101822.59;;;12.33
79714;BMP280;69206;51.420;5.400;2023-05-14T05:05:39;101817.13;;;12.25
79714;BMP280;69206;51.420;5.400;2023-05-14T05:08:05;101823.28;;;12.46
79714;BMP280;69206;51.420;5.400;2023-05-14T05:10:30;101824.22;;;12.45
79714;BMP280;69206;51.420;5.400;2023-05-14T05:12:55;101819.59;;;12.38
79714;BMP280;69206;51.420;5.400;2023-05-14T05:15:21;101821.69;;;12.44
79714;BMP280;69206;51.420;5.400;2023-05-14T05:17:47;101803.44;;;12.31
79714;BMP280;69206;51.420;5.400;2023-05-14T05:20:12;101840.13;;;12.55
79714;BMP280;69206;51.420;5.400;2023-05-14T05:22:37;101835.66;;;12.55
79714;BMP280;69206;51.420;5.400;2023-05-14T05:25:03;101830.88;;;12.60
79714;BMP280;69206;51.420;5.400;2023-05-14T05:27:33;101838.97;;;12.68
79714;BMP280;69206;51.420;5.400;2023-05-14T05:30:00;101834.53;;;12.69
79714;BMP280;69206;51.420;5.400;2023-05-14T05:32:25;101830.75;;;12.82
79714;BMP280;69206;51.420;5.400;2023-05-14T05:34:51;101819.84;;;12.96
79714;BMP280;69206;51.420;5.400;2023-05-14T05:37:16;101838.13;;;13.18
79714;BMP280;69206;51.420;5.400;2023-05-14T05:39:42;101797.59;;;13.10
79714;BMP280;69206;51.420;5.400;2023-05-14T05:42:07;101811.78;;;13.18
79714;BMP280;69206;51.420;5.400;2023-05-14T05:44:33;101796.94;;;13.17
79714;BMP280;69206;51.420;5.400;2023-05-14T05:46:58;101808.81;;;13.32
79714;BMP280;69206;51.420;5.400;2023-05-14T05:49:23;101821.66;;;13.46
79714;BMP280;69206;51.420;5.400;2023-05-14T05:51:49;101829.00;;;13.52
79714;BMP280;69206;51.420;5.400;2023-05-14T05:54:14;101833.31;;;13.53
79714;BMP280;69206;51.420;5.400;2023-05-14T05:56:40;101829.97;;;13.51
79714;BMP280;69206;51.420;5.400;2023-05-14T05:59:05;101830.81;;;13.52
79714;BMP280;69206;51.420;5.400;2023-05-14T06:01:31;101791.03;;;13.34
79714;BMP280;69206;51.420;5.400;2023-05-14T06:03:57;101825.16;;;13.66
79714;BMP280;69206;51.420;5.400;2023-05-14T06:06:22;101833.06;;;13.66
79714;BMP280;69206;51.420;5.400;2023-05-14T06:08:48;101836.84;;;13.73
79714;BMP280;69206;51.420;5.400;2023-05-14T06:11:13;101834.34;;;13.71
79714;BMP280;69206;51.420;5.400;2023-05-14T06:13:39;101840.00;;;13.67
79714;BMP280;69206;51.420;5.400;2023-05-14T06:16:05;101843.91;;;13.72
79714;BMP280;69206;51.420;5.400;2023-05-14T06:18:30;101837.50;;;13.65
79714;BMP280;69206;51.420;5.400;2023-05-14T06:20:56;101846.53;;;13.72
79714;BMP280;69206;51.420;5.400;2023-05-14T06:23:24;101853.78;;;13.70
79714;BMP280;69206;51.420;5.400;2023-05-14T06:25:50;101855.59;;;13.70
79714;BMP280;69206;51.420;5.400;2023-05-14T06:28:16;101860.56;;;13.73
79714;BMP280;69206;51.420;5.400;2023-05-14T06:30:41;101852.53;;;13.74
79714;BMP280;69206;51.420;5.400;2023-05-14T06:33:06;101856.72;;;13.96
79714;BMP280;69206;51.420;5.400;2023-05-14T06:35:32;101848.81;;;13.86
79714;BMP280;69206;51.420;5.400;2023-05-14T06:37:58;101852.69;;;13.82
79714;BMP280;69206;51.420;5.400;2023-05-14T06:40:24;101812.00;;;13.75
79714;BMP280;69206;51.420;5.400;2023-05-14T06:42:49;101825.06;;;13.86
79714;BMP280;69206;51.420;5.400;2023-05-14T06:45:14;101849.78;;;13.76
79714;BMP280;69206;51.420;5.400;2023-05-14T06:47:40;101845.38;;;13.95
79714;BMP280;69206;51.420;5.400;2023-05-14T06:50:06;101853.41;;;14.03
79714;BMP280;69206;51.420;5.400;2023-05-14T06:52:31;101851.34;;;14.16
79714;BMP280;69206;51.420;5.400;2023-05-14T06:54:57;101856.06;;;14.13
79714;BMP280;69206;51.420;5.400;2023-05-14T06:57:22;101851.47;;;14.15
79714;BMP280;69206;51.420;5.400;2023-05-14T06:59:47;101851.50;;;14.43
79714;BMP280;69206;51.420;5.400;2023-05-14T07:02:13;101822.03;;;14.48
79714;BMP280;69206;51.420;5.400;2023-05-14T07:04:38;101848.28;;;14.68
79714;BMP280;69206;51.420;5.400;2023-05-14T07:07:04;101837.16;;;14.74
79714;BMP280;69206;51.420;5.400;2023-05-14T07:09:30;101832.63;;;14.84
79714;BMP280;69206;51.420;5.400;2023-05-14T07:11:55;101838.50;;;14.78
79714;BMP280;69206;51.420;5.400;2023-05-14T07:14:20;101844.47;;;14.99
79714;BMP280;69206;51.420;5.400;2023-05-14T07:16:46;101844.53;;;15.07
79714;BMP280;69206;51.420;5.400;2023-05-14T07:19:12;101843.91;;;15.05
79714;BMP280;69206;51.420;5.400;2023-05-14T07:21:37;101835.63;;;15.08
79714;BMP280;69206;51.420;5.400;2023-05-14T07:24:03;101833.22;;;15.24
79714;BMP280;69206;51.420;5.400;2023-05-14T07:26:28;101813.78;;;15.15
79714;BMP280;69206;51.420;5.400;2023-05-14T07:28:54;101849.88;;;15.34
79714;BMP280;69206;51.420;5.400;2023-05-14T07:31:20;101844.31;;;15.37
79714;BMP280;69206;51.420;5.400;2023-05-14T07:33:45;101844.97;;;15.48
79714;BMP280;69206;51.420;5.400;2023-05-14T07:36:10;101814.00;;;15.22
79714;BMP280;69206;51.420;5.400;2023-05-14T07:38:36;101844.47;;;15.53
79714;BMP280;69206;51.420;5.400;2023-05-14T07:41:01;101822.72;;;15.41
79714;BMP280;69206;51.420;5.400;2023-05-14T07:43:27;101810.50;;;15.31
79714;BMP280;69206;51.420;5.400;2023-05-14T07:45:52;101851.63;;;15.70
79714;BMP280;69206;51.420;5.400;2023-05-14T07:48:17;101839.44;;;15.77
79714;BMP280;69206;51.420;5.400;2023-05-14T07:50:43;101846.94;;;15.81
79714;BMP280;69206;51.420;5.400;2023-05-14T07:53:09;101831.75;;;15.83
79714;BMP280;69206;51.420;5.400;2023-05-14T07:55:35;101834.78;;;15.88
79714;BMP280;69206;51.420;5.400;2023-05-14T07:58:01;101840.16;;;15.79
79714;BMP280;69206;51.420;5.400;2023-05-14T08:00:26;101839.25;;;15.88
79714;BMP280;69206;51.420;5.400;2023-05-14T08:02:51;101823.50;;;16.04
79714;BMP280;69206;51.420;5.400;2023-05-14T08:05:17;101824.03;;;16.25
79714;BMP280;69206;51.420;5.400;2023-05-14T08:07:43;101835.03;;;16.55
79714;BMP280;69206;51.420;5.400;2023-05-14T08:10:09;101832.28;;;16.65
79714;BMP280;69206;51.420;5.400;2023-05-14T08:12:34;101822.13;;;17.19
79714;BMP280;69206;51.420;5.400;2023-05-14T08:15:00;101825.75;;;17.67
79714;BMP280;69206;51.420;5.400;2023-05-14T08:17:26;101827.69;;;17.49
79714;BMP280;69206;51.420;5.400;2023-05-14T08:19:51;101831.34;;;17.40
79714;BMP280;69206;51.420;5.400;2023-05-14T08:22:17;101821.63;;;17.73
79714;BMP280;69206;51.420;5.400;2023-05-14T08:24:42;101809.38;;;17.80
79714;BMP280;69206;51.420;5.400;2023-05-14T08:27:08;101824.56;;;19.04
79714;BMP280;69206;51.420;5.400;2023-05-14T08:29:34;101812.94;;;19.80
79714;BMP280;69206;51.420;5.400;2023-05-14T08:31:59;101816.66;;;19.94
79714;BMP280;69206;51.420;5.400;2023-05-14T08:34:24;101815.31;;;21.13
79714;BMP280;69206;51.420;5.400;2023-05-14T08:36:50;101814.19;;;21.43
79714;BMP280;69206;51.420;5.400;2023-05-14T08:39:15;101771.06;;;21.46
79714;BMP280;69206;51.420;5.400;2023-05-14T08:41:41;101788.34;;;21.71
79714;BMP280;69206;51.420;5.400;2023-05-14T08:44:17;101789.84;;;21.80
79714;BMP280;69206;51.420;5.400;2023-05-14T08:46:43;101795.75;;;21.69
79714;BMP280;69206;51.420;5.400;2023-05-14T08:49:31;101802.41;;;21.80
79714;BMP280;69206;51.420;5.400;2023-05-14T08:52:01;101790.38;;;22.24
79714;BMP280;69206;51.420;5.400;2023-05-14T08:54:26;101793.28;;;22.29
79714;BMP280;69206;51.420;5.400;2023-05-14T08:56:53;101784.09;;;22.85
79714;BMP280;69206;51.420;5.400;2023-05-14T08:59:18;101779.91;;;22.76
79714;BMP280;69206;51.420;5.400;2023-05-14T09:01:51;101766.84;;;23.20
79714;BMP280;69206;51.420;5.400;2023-05-14T09:04:21;101771.69;;;22.84
79714;BMP280;69206;51.420;5.400;2023-05-14T09:06:51;101766.44;;;23.49
79714;BMP280;69206;51.420;5.400;2023-05-14T09:09:18;101752.16;;;23.93
79714;BMP280;69206;51.420;5.400;2023-05-14T09:11:47;101724.78;;;23.66
79714;BMP280;69206;51.420;5.400;2023-05-14T09:14:13;101759.47;;;22.62
79714;BMP280;69206;51.420;5.400;2023-05-14T09:16:39;101749.13;;;23.45
79714;BMP280;69206;51.420;5.400;2023-05-14T09:19:06;101751.38;;;24.43
79714;BMP280;69206;51.420;5.400;2023-05-14T09:21:32;101737.03;;;24.93
79714;BMP280;69206;51.420;5.400;2023-05-14T09:23:58;101733.09;;;25.20
79714;BMP280;69206;51.420;5.400;2023-05-14T09:26:24;101744.94;;;24.88
79714;BMP280;69206;51.420;5.400;2023-05-14T09:28:53;101730.25;;;24.53
79714;BMP280;69206;51.420;5.400;2023-05-14T09:31:20;101749.97;;;24.34
79714;BMP280;69206;51.420;5.400;2023-05-14T09:33:50;101739.69;;;24.62
79714;BMP280;69206;51.420;5.400;2023-05-14T09:36:16;101727.47;;;24.97
79714;BMP280;69206;51.420;5.400;2023-05-14T09:38:41;101729.66;;;24.82
79714;BMP280;69206;51.420;5.400;2023-05-14T09:41:07;101696.03;;;25.04
79714;BMP280;69206;51.420;5.400;2023-05-14T09:43:32;101724.59;;;24.99
79714;BMP280;69206;51.420;5.400;2023-05-14T09:45:57;101715.31;;;25.97
79714;BMP280;69206;51.420;5.400;2023-05-14T09:48:24;101721.94;;;26.30
79714;BMP280;69206;51.420;5.400;2023-05-14T09:50:49;101715.41;;;25.73
79714;BMP280;69206;51.420;5.400;2023-05-14T09:53:16;101717.09;;;25.49
79714;BMP280;69206;51.420;5.400;2023-05-14T09:55:43;101724.69;;;25.10
79714;BMP280;69206;51.420;5.400;2023-05-14T09:58:09;101722.78;;;25.17
79714;BMP280;69206;51.420;5.400;2023-05-14T10:00:35;101716.25;;;25.49
79714;BMP280;69206;51.420;5.400;2023-05-14T10:03:04;101683.00;;;25.68
79714;BMP280;69206;51.420;5.400;2023-05-14T10:05:36;101712.81;;;25.42
79714;BMP280;69206;51.420;5.400;2023-05-14T10:08:21;101707.06;;;26.39
79714;BMP280;69206;51.420;5.400;2023-05-14T10:10:50;101706.72;;;26.65
79714;BMP280;69206;51.420;5.400;2023-05-14T10:13:19;101699.88;;;26.51
79714;BMP280;69206;51.420;5.400;2023-05-14T10:15:51;101703.75;;;25.97
79714;BMP280;69206;51.420;5.400;2023-05-14T10:18:19;101679.09;;;25.82
79714;BMP280;69206;51.420;5.400;2023-05-14T10:20:49;101708.94;;;25.80
79714;BMP280;69206;51.420;5.400;2023-05-14T10:23:17;101704.34;;;25.81
79714;BMP280;69206;51.420;5.400;2023-05-14T10:25:43;101674.75;;;25.63
79714;BMP280;69206;51.420;5.400;2023-05-14T10:28:09;101691.88;;;27.09
79714;BMP280;69206;51.420;5.400;2023-05-14T10:30:42;101669.03;;;27.34
79714;BMP280;69206;51.420;5.400;2023-05-14T10:33:10;101699.88;;;26.51
79714;BMP280;69206;51.420;5.400;2023-05-14T10:36:06;101660.22;;;27.04
79714;BMP280;69206;51.420;5.400;2023-05-14T10:38:33;101697.72;;;26.71
79714;BMP280;69206;51.420;5.400;2023-05-14T10:41:04;101687.38;;;26.27
79714;BMP280;69206;51.420;5.400;2023-05-14T10:43:31;101674.41;;;25.77
79714;BMP280;69206;51.420;5.400;2023-05-14T10:45:59;101695.53;;;26.10
79714;BMP280;69206;51.420;5.400;2023-05-14T10:48:25;101685.59;;;26.22
79714;BMP280;69206;51.420;5.400;2023-05-14T10:50:51;101688.22;;;26.57
79714;BMP280;69206;51.420;5.400;2023-05-14T10:53:18;101683.16;;;27.64
79714;BMP280;69206;51.420;5.400;2023-05-14T10:55:44;101670.97;;;27.50
79714;BMP280;69206;51.420;5.400;2023-05-14T10:58:10;101676.97;;;27.52
79714;BMP280;69206;51.420;5.400;2023-05-14T11:00:37;101667.16;;;27.12
79714;BMP280;69206;51.420;5.400;2023-05-14T11:03:04;101670.84;;;27.96
79714;BMP280;69206;51.420;5.400;2023-05-14T11:05:30;101679.75;;;25.95
79714;BMP280;69206;51.420;5.400;2023-05-14T11:07:56;101676.06;;;26.08
79714;BMP280;69206;51.420;5.400;2023-05-14T11:10:24;101654.50;;;25.78
79714;BMP280;69206;51.420;5.400;2023-05-14T11:12:56;101646.72;;;26.18
79714;BMP280;69206;51.420;5.400;2023-05-14T11:15:24;101664.81;;;26.28
79714;BMP280;69206;51.420;5.400;2023-05-14T11:17:53;101656.75;;;26.11
79714;BMP280;69206;51.420;5.400;2023-05-14T11:20:19;101664.44;;;24.69
79714;BMP280;69206;51.420;5.400;2023-05-14T11:22:47;101668.34;;;25.82
79714;BMP280;69206;51.420;5.400;2023-05-14T11:25:13;101660.13;;;26.99
79714;BMP280;69206;51.420;5.400;2023-05-14T11:27:40;101646.06;;;27.20
79714;BMP280;69206;51.420;5.400;2023-05-14T11:30:16;101640.38;;;28.12
79714;BMP280;69206;51.420;5.400;2023-05-14T11:32:46;101633.03;;;27.40
79714;BMP280;69206;51.420;5.400;2023-05-14T11:35:12;101638.94;;;26.91
79714;BMP280;69206;51.420;5.400;2023-05-14T11:37:38;101635.88;;;27.61
79714;BMP280;69206;51.420;5.400;2023-05-14T11:40:07;101631.56;;;28.05
79714;BMP280;69206;51.420;5.400;2023-05-14T11:42:35;101617.97;;;28.60
79714;BMP280;69206;51.420;5.400;2023-05-14T11:45:00;101611.66;;;28.55
79714;BMP280;69206;51.420;5.400;2023-05-14T11:47:28;101617.13;;;29.14
79714;BMP280;69206;51.420;5.400;2023-05-14T11:49:53;101602.22;;;29.12
79714;BMP280;69206;51.420;5.400;2023-05-14T11:52:19;101606.06;;;29.90
79714;BMP280;69206;51.420;5.400;2023-05-14T11:54:46;101611.38;;;30.06
79714;BMP280;69206;51.420;5.400;2023-05-14T11:57:17;101616.25;;;30.09
79714;BMP280;69206;51.420;5.400;2023-05-14T11:59:42;101604.97;;;29.17
79714;BMP280;69206;51.420;5.400;2023-05-14T12:02:12;101618.56;;;28.30
79714;BMP280;69206;51.420;5.400;2023-05-14T12:04:39;101618.84;;;28.49
79714;BMP280;69206;51.420;5.400;2023-05-14T12:07:14;101603.81;;;29.82
79714;BMP280;69206;51.420;5.400;2023-05-14T12:09:41;101603.75;;;28.86
79714;BMP280;69206;51.420;5.400;2023-05-14T12:12:11;101594.41;;;28.94
79714;BMP280;69206;51.420;5.400;2023-05-14T12:14:37;101602.91;;;27.71
79714;BMP280;69206;51.420;5.400;2023-05-14T12:17:10;101609.16;;;28.16
79714;BMP280;69206;51.420;5.400;2023-05-14T12:19:39;101599.38;;;28.64
79714;BMP280;69206;51.420;5.400;2023-05-14T12:22:08;101614.16;;;27.17
79714;BMP280;69206;51.420;5.400;2023-05-14T12:24:33;101599.09;;;27.16
79714;BMP280;69206;51.420;5.400;2023-05-14T12:27:00;101582.91;;;27.16
79714;BMP280;69206;51.420;5.400;2023-05-14T12:29:26;101603.53;;;27.11
79714;BMP280;69206;51.420;5.400;2023-05-14T12:31:52;101599.31;;;27.03
79714;BMP280;69206;51.420;5.400;2023-05-14T12:34:17;101579.53;;;27.76
79714;BMP280;69206;51.420;5.400;2023-05-14T12:36:43;101556.28;;;27.75
79714;BMP280;69206;51.420;5.400;2023-05-14T12:39:09;101561.97;;;27.74
79714;BMP280;69206;51.420;5.400;2023-05-14T12:41:35;101558.44;;;29.15
79714;BMP280;69206;51.420;5.400;2023-05-14T12:44:04;101562.03;;;29.73
79714;BMP280;69206;51.420;5.400;2023-05-14T12:46:31;101560.72;;;29.75
79714;BMP280;69206;51.420;5.400;2023-05-14T12:48:57;101523.28;;;28.50
79714;BMP280;69206;51.420;5.400;2023-05-14T12:51:23;101576.44;;;26.37
79714;BMP280;69206;51.420;5.400;2023-05-14T12:53:49;101558.69;;;26.82
79714;BMP280;69206;51.420;5.400;2023-05-14T12:56:16;101556.47;;;26.44
79714;BMP280;69206;51.420;5.400;2023-05-14T12:58:41;101547.19;;;26.86
79714;BMP280;69206;51.420;5.400;2023-05-14T13:01:08;101552.88;;;27.24
79714;BMP280;69206;51.420;5.400;2023-05-14T13:03:33;101553.84;;;26.95
79714;BMP280;69206;51.420;5.400;2023-05-14T13:05:59;101520.03;;;27.27
79714;BMP280;69206;51.420;5.400;2023-05-14T13:08:25;101536.09;;;27.22
79714;BMP280;69206;51.420;5.400;2023-05-14T13:10:52;101513.13;;;26.34
79714;BMP280;69206;51.420;5.400;2023-05-14T13:13:17;101507.03;;;26.85
79714;BMP280;69206;51.420;5.400;2023-05-14T13:15:43;101498.03;;;26.22
79714;BMP280;69206;51.420;5.400;2023-05-14T13:18:13;101539.44;;;26.32
79714;BMP280;69206;51.420;5.400;2023-05-14T13:20:39;101487.81;;;26.81
79714;BMP280;69206;51.420;5.400;2023-05-14T13:23:05;101524.72;;;27.20
79714;BMP280;69206;51.420;5.400;2023-05-14T13:25:30;101530.56;;;28.34
79714;BMP280;69206;51.420;5.400;2023-05-14T13:27:55;101528.69;;;27.85
79714;BMP280;69206;51.420;5.400;2023-05-14T13:30:21;101540.53;;;26.54
79714;BMP280;69206;51.420;5.400;2023-05-14T13:32:46;101528.09;;;26.30
79714;BMP280;69206;51.420;5.400;2023-05-14T13:35:12;101470.31;;;27.07
79714;BMP280;69206;51.420;5.400;2023-05-14T13:37:38;101524.91;;;27.41
79714;BMP280;69206;51.420;5.400;2023-05-14T13:40:04;101536.66;;;27.63
79714;BMP280;69206;51.420;5.400;2023-05-14T13:42:32;101474.19;;;27.55
79714;BMP280;69206;51.420;5.400;2023-05-14T13:44:58;101523.78;;;27.26
79714;BMP280;69206;51.420;5.400;2023-05-14T13:47:24;101512.75;;;26.77
79714;BMP280;69206;51.420;5.400;2023-05-14T13:49:51;101530.22;;;26.28
79714;BMP280;69206;51.420;5.400;2023-05-14T13:52:16;101531.63;;;26.54
79714;BMP280;69206;51.420;5.400;2023-05-14T13:54:42;101532.19;;;26.90
79714;BMP280;69206;51.420;5.400;2023-05-14T13:57:07;101534.25;;;27.11
79714;BMP280;69206;51.420;5.400;2023-05-14T13:59:33;101533.28;;;26.43
79714;BMP280;69206;51.420;5.400;2023-05-14T14:01:58;101527.50;;;25.88